Terminal Aerodrome Forecast
Issued by NWS Jacksonville, FL

Home | Current Version | Previous Version | Text Only | Print | Product List | Glossary On
Versions: 1 2 3 4 5 6 7 8 9 10 11 12 13
000
FTUS42 KJAX 111139
TAFJAX
TAF
KJAX 111139Z 1112/1212 02006KT P6SM VCSH SCT025 BKN045
     FM111500 11010KT P6SM SCT030 BKN050
     FM112300 09005KT P6SM VCSH SCT025 BKN035
     FM120400 17003KT P6SM VCSH SCT010 OVC020=

USA.gov is the U.S. government's official web portal to all federal, state and local government web resources and services.